Time;durP1;ratioP1;P1;durP2;ratioP2;P2;SDS_P1;SDS_P2;PMS_P1;PMS_P2;Temp;Humidity;BMP_temperature;BMP_pressure;BME280_temperature;BME280_humidity;BME280_pressure;Samples;Min_cycle;Max_cycle;Signal;HPM_P1;HPM_P2
2021/12/03 00:01:07;;;;;;;1.67;1.30;;;;;;;7.32;97.05;99874.66;4949013;28;20439;-82
2021/12/03 00:03:35;;;;;;;1.63;1.45;;;;;;;7.35;97.99;99868.47;4946904;28;20436;-83
2021/12/03 00:06:02;;;;;;;3.30;2.50;;;;;;;7.38;97.55;99876.03;4946973;28;20053;-79
2021/12/03 00:08:29;;;;;;;3.80;1.75;;;;;;;7.40;98.16;99887.50;4948591;28;20047;-79
2021/12/03 00:10:59;;;;;;;2.10;1.85;;;;;;;7.42;97.96;99863.19;4959937;28;20447;-79
2021/12/03 00:13:29;;;;;;;2.80;1.88;;;;;;;7.43;97.93;99869.50;4949119;28;20452;-79
2021/12/03 00:15:58;;;;;;;4.00;2.97;;;;;;;7.45;98.07;99879.00;4942318;28;20130;-79
2021/12/03 00:18:25;;;;;;;4.03;2.63;;;;;;;7.46;98.19;99875.13;4965987;28;20039;-79
2021/12/03 00:20:52;;;;;;;2.92;2.47;;;;;;;7.49;97.93;99884.63;4964879;28;20498;-79
2021/12/03 00:23:21;;;;;;;3.60;2.60;;;;;;;7.49;98.18;99868.94;4945153;28;20508;-79
2021/12/03 00:25:49;;;;;;;4.53;3.00;;;;;;;7.50;97.71;99859.50;4943776;28;20043;-79
2021/12/03 00:28:15;;;;;;;4.10;2.85;;;;;;;7.51;98.36;99858.34;4951749;28;20090;-79
2021/12/03 00:30:43;;;;;;;4.22;2.97;;;;;;;7.53;98.21;99858.81;4933901;28;20099;-79
2021/12/03 00:33:10;;;;;;;4.95;3.25;;;;;;;7.54;98.31;99860.44;4950554;28;20043;-79
2021/12/03 00:35:36;;;;;;;6.32;3.25;;;;;;;7.57;98.53;99848.69;4950932;28;20047;-79
2021/12/03 00:38:04;;;;;;;4.78;3.50;;;;;;;7.59;98.91;99842.84;4950419;28;20045;-79
2021/12/03 00:40:34;;;;;;;9.13;3.30;;;;;;;7.59;98.70;99840.91;4949142;28;20065;-79
2021/12/03 00:43:03;;;;;;;6.13;4.00;;;;;;;7.61;98.54;99846.84;4950694;28;20127;-79
2021/12/03 00:45:31;;;;;;;8.80;4.10;;;;;;;7.62;98.56;99839.41;4950457;28;20784;-79
2021/12/03 00:47:59;;;;;;;7.78;3.80;;;;;;;7.64;98.94;99842.59;4950634;28;20075;-79
2021/12/03 00:50:28;;;;;;;5.75;3.35;;;;;;;7.67;99.49;99853.75;4950799;28;20051;-79
2021/12/03 00:52:55;;;;;;;5.72;4.18;;;;;;;7.69;99.23;99862.47;4948869;28;20075;-79
2021/12/03 00:55:26;;;;;;;5.57;4.40;;;;;;;7.71;99.24;99843.63;4947831;28;20039;-79
2021/12/03 00:57:53;;;;;;;6.07;3.72;;;;;;;7.73;99.29;99838.56;4950441;28;20046;-79
2021/12/03 01:00:27;;;;;;;4.70;4.20;;;;;;;7.74;99.60;99834.66;4950042;28;20047;-80
2021/12/03 01:02:58;;;;;;;4.63;3.72;;;;;;;7.78;99.52;99832.03;4948690;28;20122;-79
2021/12/03 01:05:26;;;;;;;7.30;3.85;;;;;;;7.78;99.65;99835.56;4948053;28;20090;-79
2021/12/03 01:07:53;;;;;;;6.75;4.60;;;;;;;7.80;99.61;99847.06;4965778;28;20043;-79
2021/12/03 01:10:22;;;;;;;5.75;4.43;;;;;;;7.82;99.63;99843.94;4963851;28;20145;-79
2021/12/03 01:12:49;;;;;;;5.72;4.25;;;;;;;7.81;99.24;99834.88;4949036;28;20090;-79
2021/12/03 01:15:19;;;;;;;7.15;5.10;;;;;;;7.83;99.08;99840.84;4948746;28;20043;-78
2021/12/03 01:17:46;;;;;;;10.52;4.93;;;;;;;7.84;99.51;99841.63;4955891;28;20040;-79
2021/12/03 01:20:14;;;;;;;6.82;4.68;;;;;;;7.83;99.19;99840.03;4949536;28;20595;-79
2021/12/03 01:22:43;;;;;;;7.45;5.85;;;;;;;7.83;99.70;99834.53;4948070;28;20118;-79
2021/12/03 01:25:13;;;;;;;11.10;5.53;;;;;;;7.84;99.48;99836.94;4948655;28;20150;-79
2021/12/03 01:27:40;;;;;;;8.25;5.30;;;;;;;7.83;99.38;99837.28;4931794;28;20047;-78
2021/12/03 01:30:10;;;;;;;7.75;5.75;;;;;;;7.83;99.49;99840.03;4948150;28;20501;-79
2021/12/03 01:32:37;;;;;;;9.70;6.43;;;;;;;7.83;99.81;99840.03;4948124;28;20047;-79
2021/12/03 01:35:05;;;;;;;9.25;6.28;;;;;;;7.83;99.51;99848.31;4948777;28;20606;-79
2021/12/03 01:37:32;;;;;;;9.65;6.45;;;;;;;7.83;99.54;99845.56;4948046;28;20070;-79
2021/12/03 01:39:59;;;;;;;11.00;7.15;;;;;;;7.84;99.37;99849.91;4948519;28;20045;-79
2021/12/03 01:42:25;;;;;;;8.95;6.13;;;;;;;7.85;99.79;99849.56;4948184;28;20207;-79
2021/12/03 01:44:52;;;;;;;11.27;7.93;;;;;;;7.87;99.90;99852.75;4950928;28;20055;-79
2021/12/03 01:47:19;;;;;;;11.77;6.80;;;;;;;7.89;99.78;99855.16;4949159;28;20410;-79
2021/12/03 01:49:46;;;;;;;11.85;7.22;;;;;;;7.91;100.00;99853.69;4948310;28;20043;-79
2021/12/03 01:52:12;;;;;;;12.40;7.80;;;;;;;7.94;99.54;99858.47;4952680;28;20047;-79
2021/12/03 01:54:39;;;;;;;9.02;6.40;;;;;;;7.96;100.00;99850.69;4932537;28;20046;-79
2021/12/03 01:57:06;;;;;;;9.07;6.07;;;;;;;7.97;100.00;99848.72;4947654;28;20059;-79
2021/12/03 01:59:33;;;;;;;9.60;6.57;;;;;;;7.98;100.00;99836.53;4949963;28;20075;-79
2021/12/03 02:02:00;;;;;;;9.43;6.18;;;;;;;7.97;100.00;99841.25;4949070;28;20118;-79
2021/12/03 02:04:27;;;;;;;9.10;6.70;;;;;;;7.97;99.90;99844.00;4942642;28;20054;-79
2021/12/03 02:06:54;;;;;;;9.60;6.40;;;;;;;7.98;100.00;99853.09;4964776;28;20047;-79
2021/12/03 02:09:21;;;;;;;7.85;6.43;;;;;;;8.02;100.00;99837.47;4949339;28;22341;-79
2021/12/03 02:11:50;;;;;;;7.30;5.40;;;;;;;8.04;100.00;99834.34;4949432;28;20118;-78
2021/12/03 02:14:16;;;;;;;9.30;6.03;;;;;;;8.05;100.00;99841.47;4949622;28;20495;-79
2021/12/03 02:16:45;;;;;;;9.10;6.03;;;;;;;8.08;100.00;99838.00;4948353;28;20401;-79
2021/12/03 02:19:12;;;;;;;8.95;6.97;;;;;;;8.10;100.00;99849.50;4949938;28;20126;-79
2021/12/03 02:21:39;;;;;;;9.65;6.05;;;;;;;8.11;100.00;99837.28;4948423;28;20452;-78
2021/12/03 02:24:06;;;;;;;9.50;6.80;;;;;;;8.10;100.00;99838.47;4949703;28;20058;-79
2021/12/03 02:26:33;;;;;;;7.72;6.13;;;;;;;8.10;100.00;99857.75;4949052;28;20043;-80
2021/12/03 02:29:00;;;;;;;8.35;5.53;;;;;;;8.11;100.00;99845.56;4947862;28;20083;-79
2021/12/03 02:31:28;;;;;;;7.10;5.03;;;;;;;8.12;100.00;99845.22;4948368;28;20043;-79
2021/12/03 02:33:55;;;;;;;7.65;5.50;;;;;;;8.12;100.00;99845.22;4949528;28;20041;-79
2021/12/03 02:36:21;;;;;;;7.38;5.10;;;;;;;8.13;100.00;99852.31;4964257;28;20069;-79
2021/12/03 02:38:48;;;;;;;7.55;6.03;;;;;;;8.15;100.00;99863.03;4949135;28;20439;-79
2021/12/03 02:41:16;;;;;;;7.18;6.10;;;;;;;8.17;100.00;99868.97;4949399;28;20065;-79
2021/12/03 02:43:42;;;;;;;8.82;5.60;;;;;;;8.16;100.00;99870.13;4952511;28;20043;-79
2021/12/03 02:46:09;;;;;;;6.65;5.03;;;;;;;8.18;100.00;99874.13;4951100;28;20051;-79
2021/12/03 02:48:36;;;;;;;7.60;4.47;;;;;;;8.20;100.00;99860.00;4952953;28;20105;-79
2021/12/03 02:51:05;;;;;;;5.75;4.10;;;;;;;8.21;100.00;99867.13;4953072;28;20035;-79
2021/12/03 02:53:32;;;;;;;3.97;3.13;;;;;;;8.24;100.00;99860.91;4964566;28;20043;-79
2021/12/03 02:56:00;;;;;;;4.13;3.30;;;;;;;8.25;100.00;99862.53;4953056;28;20047;-79
2021/12/03 02:58:26;;;;;;;4.38;2.92;;;;;;;8.26;100.00;99872.41;4950830;28;20051;-79
2021/12/03 03:00:54;;;;;;;3.13;2.15;;;;;;;8.24;100.00;99858.94;4951969;28;20059;-79
2021/12/03 03:03:21;;;;;;;0.85;0.63;;;;;;;8.24;100.00;99866.41;4953141;28;20051;-79
2021/12/03 03:06:01;;;;;;;1.75;1.00;;;;;;;8.23;100.00;99864.84;4952293;28;20098;-79
2021/12/03 03:08:29;;;;;;;3.10;0.55;;;;;;;8.21;100.00;99878.13;4953105;28;20053;-79
2021/12/03 03:10:57;;;;;;;1.67;0.40;;;;;;;8.17;99.97;99885.53;4952067;28;20050;-79
2021/12/03 03:13:24;;;;;;;1.80;0.32;;;;;;;8.17;99.79;99882.75;4951034;28;20118;-79
2021/12/03 03:15:52;;;;;;;1.13;0.47;;;;;;;8.14;99.49;99883.47;4951206;28;20174;-79
2021/12/03 03:18:23;;;;;;;0.30;0.10;;;;;;;8.10;99.55;99894.38;4965755;28;20407;-79
2021/12/03 03:20:52;;;;;;;;;;;;;;;8.08;99.63;99904.16;4952104;28;20053;-79
2021/12/03 03:23:19;;;;;;;2.90;0.28;;;;;;;8.07;99.56;99894.28;4950877;28;19973;-79
2021/12/03 03:25:48;;;;;;;1.67;0.30;;;;;;;8.04;99.48;99895.78;4952023;28;20503;-79
2021/12/03 03:28:16;;;;;;;0.22;0.20;;;;;;;8.04;99.34;99893.03;4952224;28;20049;-79
2021/12/03 03:30:47;;;;;;;2.08;0.30;;;;;;;8.04;99.47;99895.78;4951107;28;20043;-79
2021/12/03 03:33:16;;;;;;;0.47;0.25;;;;;;;8.04;99.38;99901.31;4949752;28;20387;-79
2021/12/03 03:35:44;;;;;;;2.97;0.40;;;;;;;8.05;99.10;99908.41;4950062;28;20167;-79
2021/12/03 03:38:11;;;;;;;5.45;0.60;;;;;;;8.05;99.28;99915.91;4949972;28;20043;-79
2021/12/03 03:40:40;;;;;;;2.10;0.35;;;;;;;8.07;99.23;99919.09;4951334;28;20035;-79
2021/12/03 03:43:07;;;;;;;4.60;0.40;;;;;;;8.07;99.41;99921.84;4964207;28;20138;-79
2021/12/03 03:45:36;;;;;;;2.97;0.85;;;;;;;8.06;99.24;99925.75;4962887;28;20043;-79
2021/12/03 03:48:05;;;;;;;2.97;1.05;;;;;;;8.05;99.24;99932.44;4951411;28;20121;-79
2021/12/03 03:50:32;;;;;;;2.63;0.50;;;;;;;8.03;99.36;99910.72;4951965;28;20047;-79
2021/12/03 03:52:58;;;;;;;4.40;0.82;;;;;;;8.02;99.16;99905.56;4951239;28;20479;-79
2021/12/03 03:55:26;;;;;;;1.05;0.40;;;;;;;7.97;99.22;99901.06;4951837;28;20035;-79
2021/12/03 03:57:56;;;;;;;3.10;0.32;;;;;;;7.93;98.97;99903.75;4949759;28;20031;-79
2021/12/03 04:00:45;;;;;;;5.82;0.50;;;;;;;7.90;98.80;99901.69;4950757;28;20055;-79
2021/12/03 04:03:13;;;;;;;3.15;0.40;;;;;;;7.88;98.68;99911.44;4950152;28;20063;-79
2021/12/03 04:05:40;;;;;;;2.88;0.57;;;;;;;7.84;98.48;99911.31;4950451;28;20049;-79
2021/12/03 04:08:07;;;;;;;4.85;0.52;;;;;;;7.84;98.58;99902.25;4951355;28;20053;-79
2021/12/03 04:10:35;;;;;;;2.67;0.57;;;;;;;7.79;98.10;99906.06;4951664;28;20058;-79
2021/12/03 04:13:01;;;;;;;0.85;0.45;;;;;;;7.79;98.12;99902.50;4951984;28;20039;-79
2021/12/03 04:15:28;;;;;;;4.40;0.70;;;;;;;7.79;98.03;99903.31;4951036;28;20047;-79
2021/12/03 04:17:55;;;;;;;6.07;0.65;;;;;;;7.77;97.83;99902.84;4968407;28;20039;-79
2021/12/03 04:20:22;;;;;;;2.05;0.50;;;;;;;7.76;97.72;99917.78;4951218;28;20804;-79
2021/12/03 04:22:54;;;;;;;7.60;0.55;;;;;;;7.72;97.39;99933.41;4950939;28;20057;-79
2021/12/03 04:25:24;;;;;;;1.35;0.55;;;;;;;7.70;97.33;99919.19;4950010;28;20058;-79
2021/12/03 04:27:51;;;;;;;7.13;0.85;;;;;;;7.68;97.17;99910.44;4950007;28;20043;-79
2021/12/03 04:30:25;;;;;;;6.70;1.33;;;;;;;7.63;96.93;99910.66;4950004;28;20047;-79
2021/12/03 04:32:53;;;;;;;4.05;0.57;;;;;;;7.58;96.50;99921.91;4965092;28;20043;-79
2021/12/03 04:35:20;;;;;;;6.05;1.75;;;;;;;7.52;96.54;99919.75;4950046;28;20135;-79
2021/12/03 04:37:50;;;;;;;4.45;1.70;;;;;;;7.48;96.37;99927.91;4951160;28;20122;-79
2021/12/03 04:40:19;;;;;;;8.13;1.20;;;;;;;7.42;96.10;99922.94;4949330;28;20043;-79
2021/12/03 04:42:46;;;;;;;13.73;2.58;;;;;;;7.40;96.15;99919.75;4949289;28;20047;-79
2021/12/03 04:45:18;;;;;;;9.25;1.38;;;;;;;7.38;96.05;99928.34;4950748;28;20050;-79
2021/12/03 04:47:51;;;;;;;6.90;1.10;;;;;;;7.32;95.96;99922.28;4950340;28;20047;-79
2021/12/03 04:50:20;;;;;;;15.75;1.77;;;;;;;7.29;95.64;99928.47;4949057;28;20562;-79
2021/12/03 04:52:47;;;;;;;9.73;1.65;;;;;;;7.30;95.23;99915.50;4949513;28;20047;-79
2021/12/03 04:55:16;;;;;;;7.20;1.90;;;;;;;7.31;95.71;99903.31;4948797;28;20054;-79
2021/12/03 04:57:43;;;;;;;10.40;1.17;;;;;;;7.33;95.39;99909.31;4933597;28;20039;-79
2021/12/03 05:00:16;;;;;;;10.07;1.98;;;;;;;7.31;95.11;99903.31;4947770;28;20059;-79
2021/12/03 05:02:44;;;;;;;5.53;1.92;;;;;;;7.32;94.76;99902.19;4948883;28;20094;-79
2021/12/03 05:05:12;;;;;;;8.93;1.40;;;;;;;7.35;94.67;99923.53;4947194;28;20533;-80
2021/12/03 05:10:07;;;;;;;11.48;1.85;;;;;;;7.36;94.04;99922.38;4950187;28;20043;-79
2021/12/03 05:12:34;;;;;;;11.23;1.55;;;;;;;7.36;93.35;99930.63;4949071;28;20126;-79
2021/12/03 05:15:21;;;;;;;7.18;1.33;;;;;;;7.36;93.43;99936.13;4949976;28;20526;-79
2021/12/03 05:17:47;;;;;;;6.45;1.80;;;;;;;7.38;93.43;99939.38;4950045;28;20101;-79
2021/12/03 05:20:14;;;;;;;18.13;2.88;;;;;;;7.38;93.32;99939.38;4948524;28;20098;-79
2021/12/03 05:22:41;;;;;;;6.18;1.80;;;;;;;7.38;93.04;99939.38;4947308;28;20118;-80
2021/12/03 05:25:09;;;;;;;15.60;1.83;;;;;;;7.39;93.03;99946.47;4950886;28;20043;-79
2021/12/03 05:27:38;;;;;;;12.32;2.05;;;;;;;7.38;92.82;99936.63;4949157;28;20117;-79
2021/12/03 05:30:07;;;;;;;9.90;1.70;;;;;;;7.36;92.65;99936.13;4932978;28;20047;-79
2021/12/03 05:32:34;;;;;;;9.50;2.53;;;;;;;7.31;92.62;99928.09;4963109;28;20089;-79
2021/12/03 05:35:01;;;;;;;6.88;1.73;;;;;;;7.30;92.76;99919.06;4931495;28;20043;-79
2021/12/03 05:37:27;;;;;;;9.63;1.50;;;;;;;7.31;92.56;99926.16;4949198;28;20054;-79
2021/12/03 05:39:54;;;;;;;10.88;1.77;;;;;;;7.30;92.39;99923.75;4948441;28;20122;-79
2021/12/03 05:42:21;;;;;;;9.10;2.05;;;;;;;7.28;92.43;99923.31;4949404;28;20137;-79
2021/12/03 05:44:48;;;;;;;11.05;2.13;;;;;;;7.27;92.46;99928.00;4948859;28;20043;-79
2021/12/03 05:47:14;;;;;;;14.32;2.42;;;;;;;7.25;92.27;99921.25;4949220;28;20053;-80
2021/12/03 05:49:41;;;;;;;9.52;1.70;;;;;;;7.26;92.47;99914.56;4946380;28;20522;-79
2021/12/03 05:52:08;;;;;;;8.73;2.28;;;;;;;7.25;92.13;99918.50;4947765;28;20487;-79
2021/12/03 05:54:35;;;;;;;16.02;2.85;;;;;;;7.23;92.00;99916.06;4932318;28;20102;-79
2021/12/03 05:57:02;;;;;;;6.88;1.70;;;;;;;7.22;91.95;99903.47;4948602;28;20147;-79
2021/12/03 05:59:28;;;;;;;11.43;2.17;;;;;;;7.22;92.06;99908.97;4948915;28;20126;-79
2021/12/03 06:01:55;;;;;;;5.85;1.65;;;;;;;7.22;91.97;99902.66;4949287;28;20043;-80
2021/12/03 06:04:22;;;;;;;6.28;1.80;;;;;;;7.19;91.86;99903.34;4950211;28;20039;-79
2021/12/03 06:06:49;;;;;;;10.43;1.77;;;;;;;7.19;91.97;99898.63;4932945;28;20043;-79
2021/12/03 06:09:16;;;;;;;15.57;2.15;;;;;;;7.19;91.82;99909.66;4926468;28;20055;-80
2021/12/03 06:11:43;;;;;;;15.25;2.28;;;;;;;7.16;91.80;99913.09;4948876;28;20554;-79
2021/12/03 06:14:09;;;;;;;15.45;1.90;;;;;;;7.16;91.96;99920.53;4932219;28;20616;-79
2021/12/03 06:16:36;;;;;;;10.05;2.25;;;;;;;7.14;91.98;99918.13;4934013;28;20061;-79
2021/12/03 06:19:03;;;;;;;7.85;1.95;;;;;;;7.16;91.92;99920.53;4953222;28;20087;-79
2021/12/03 06:21:30;;;;;;;16.48;3.10;;;;;;;7.14;91.86;99925.59;4936940;28;20138;-79
2021/12/03 06:23:59;;;;;;;21.35;2.65;;;;;;;7.14;91.76;99933.84;4950387;28;20031;-79
2021/12/03 06:26:27;;;;;;;10.82;1.90;;;;;;;7.14;91.70;99917.31;4953341;28;20102;-79
2021/12/03 06:28:56;;;;;;;11.52;2.30;;;;;;;7.11;91.65;99929.81;4953220;28;20058;-79
2021/12/03 06:31:23;;;;;;;11.60;2.58;;;;;;;7.08;91.42;99932.44;4951108;28;20081;-79
2021/12/03 06:33:50;;;;;;;11.00;2.20;;;;;;;7.05;91.45;99930.38;4952896;28;20041;-79
2021/12/03 06:36:17;;;;;;;12.50;2.30;;;;;;;7.00;91.48;99925.09;4953285;28;20050;-79
2021/12/03 06:38:44;;;;;;;15.52;2.25;;;;;;;6.96;91.48;99921.44;4953087;28;20506;-79
2021/12/03 06:41:10;;;;;;;12.27;2.13;;;;;;;6.93;91.45;99906.41;4952992;28;20588;-79
2021/12/03 06:43:37;;;;;;;12.40;1.55;;;;;;;6.90;91.25;99909.03;4952930;28;20407;-79
2021/12/03 06:46:04;;;;;;;8.70;1.60;;;;;;;6.87;91.32;99910.50;4951585;28;20044;-79
2021/12/03 06:48:31;;;;;;;14.00;2.30;;;;;;;6.84;91.43;99913.94;4951425;28;20057;-79
2021/12/03 06:51:05;;;;;;;9.20;2.13;;;;;;;6.80;91.55;99928.72;4952615;28;20043;-80
2021/12/03 06:54:24;;;;;;;15.95;2.17;;;;;;;6.75;91.40;99916.78;4950933;28;20049;-80
2021/12/03 06:56:23;;;;;;;15.93;2.47;;;;;;;6.74;91.45;99920.69;4947388;28;20706;-79
2021/12/03 06:58:50;;;;;;;13.23;2.55;;;;;;;6.70;91.55;99913.44;4935914;28;20047;-79
2021/12/03 07:01:17;;;;;;;10.93;2.38;;;;;;;6.66;91.85;99927.09;4952603;28;20057;-79
2021/12/03 07:03:44;;;;;;;13.95;3.40;;;;;;;6.65;91.77;99917.22;4933186;28;20081;-79
2021/12/03 07:06:10;;;;;;;11.90;2.53;;;;;;;6.65;91.74;99922.72;4952377;28;21507;-79
2021/12/03 07:08:37;;;;;;;11.50;3.63;;;;;;;6.64;91.81;99918.38;4951236;28;20114;-79
2021/12/03 07:11:04;;;;;;;14.63;2.22;;;;;;;6.62;91.88;99920.63;4934977;28;20044;-79
2021/12/03 07:13:31;;;;;;;19.38;2.70;;;;;;;6.60;91.86;99917.44;4950570;28;20031;-80
2021/12/03 07:15:59;;;;;;;17.30;2.60;;;;;;;6.59;92.19;99899.31;4951458;28;20040;-79
2021/12/03 07:18:26;;;;;;;17.58;6.13;;;;;;;6.59;92.29;99902.06;4953295;28;20433;-79
2021/12/03 07:20:53;;;;;;;13.38;2.40;;;;;;;6.55;92.43;99906.63;4950176;28;20049;-79
2021/12/03 07:23:20;;;;;;;15.10;2.60;;;;;;;6.58;92.65;99889.47;4946322;28;20039;-79
2021/12/03 07:25:47;;;;;;;13.07;2.35;;;;;;;6.60;92.88;99898.19;4950958;28;20049;-79
2021/12/03 07:28:16;;;;;;;17.13;2.67;;;;;;;6.63;92.73;99897.50;4952417;28;20051;-79
2021/12/03 07:30:42;;;;;;;13.07;2.70;;;;;;;6.64;92.83;99904.63;4951052;28;20047;-79
2021/12/03 07:33:13;;;;;;;8.85;2.20;;;;;;;6.64;92.50;99904.63;4966818;28;20051;-79
2021/12/03 07:35:40;;;;;;;16.05;2.55;;;;;;;6.66;92.67;99907.81;4951412;28;20039;-79
2021/12/03 07:38:08;;;;;;;8.27;2.45;;;;;;;6.68;92.73;99905.53;4952644;28;20329;-79
2021/12/03 07:40:35;;;;;;;10.60;2.70;;;;;;;6.69;92.82;99906.34;4951667;28;20039;-79
2021/12/03 07:43:02;;;;;;;15.38;2.38;;;;;;;6.68;92.83;99915.72;4932986;28;20559;-78
2021/12/03 07:45:29;;;;;;;18.15;3.15;;;;;;;6.66;92.72;99918.84;4951720;28;20043;-79
2021/12/03 07:47:56;;;;;;;15.38;3.15;;;;;;;6.66;92.74;99916.06;4952134;28;20428;-79
2021/12/03 07:50:23;;;;;;;12.40;2.88;;;;;;;6.62;92.66;99917.88;4949031;28;20509;-79
2021/12/03 07:52:50;;;;;;;11.73;2.60;;;;;;;6.61;92.81;99919.03;4951407;28;20074;-79
2021/12/03 07:55:16;;;;;;;22.73;5.95;;;;;;;6.62;92.52;99917.88;4951641;28;20043;-82
2021/12/03 07:57:47;;;;;;;14.68;2.65;;;;;;;6.63;92.80;99905.75;4950161;28;20051;-79
2021/12/03 08:00:14;;;;;;;16.52;3.17;;;;;;;6.65;92.75;99905.41;4951425;28;20430;-79
2021/12/03 08:02:41;;;;;;;17.00;2.75;;;;;;;6.65;92.39;99903.47;4949549;28;20043;-78
2021/12/03 08:05:09;;;;;;;9.07;2.00;;;;;;;6.64;92.72;99895.56;4949368;28;20055;-79
2021/12/03 08:07:36;;;;;;;13.75;2.40;;;;;;;6.65;92.79;99903.47;4950225;28;20118;-79
2021/12/03 08:10:03;;;;;;;15.93;2.70;;;;;;;6.65;92.62;99895.22;4951335;28;20039;-79
2021/12/03 08:12:30;;;;;;;12.10;3.50;;;;;;;6.61;92.69;99913.53;4949694;28;20138;-79
2021/12/03 08:14:57;;;;;;;19.42;2.97;;;;;;;6.63;92.83;99922.25;4951766;28;20039;-79
2021/12/03 08:17:24;;;;;;;13.45;2.38;;;;;;;6.64;92.87;99912.06;4924384;29;20083;-79
2021/12/03 08:19:50;;;;;;;11.75;3.22;;;;;;;6.64;92.87;99923.06;4951056;28;20093;-79
2021/12/03 08:22:17;;;;;;;10.75;2.63;;;;;;;6.65;92.86;99928.22;4949543;28;20051;-79
2021/12/03 08:24:44;;;;;;;14.48;2.50;;;;;;;6.66;92.97;99932.59;4951445;28;20487;-79
2021/12/03 08:27:12;;;;;;;9.98;2.55;;;;;;;6.68;92.87;99935.78;4951634;28;20043;-79
2021/12/03 08:29:39;;;;;;;12.02;3.28;;;;;;;6.70;93.02;99930.75;4950403;28;20047;-79
2021/12/03 08:32:06;;;;;;;12.57;3.17;;;;;;;6.70;93.00;99938.19;4949544;28;20496;-79
2021/12/03 08:34:33;;;;;;;7.07;2.40;;;;;;;6.69;92.96;99934.66;4949799;28;20049;-78
2021/12/03 08:37:00;;;;;;;12.32;2.55;;;;;;;6.69;93.13;99933.84;4949070;28;20047;-84
2021/12/03 08:39:28;;;;;;;15.65;3.42;;;;;;;6.69;93.38;99923.66;4948752;28;20069;-83
2021/12/03 08:41:54;;;;;;;10.43;2.67;;;;;;;6.70;93.21;99936.25;4950953;28;20054;-80
2021/12/03 08:44:21;;;;;;;14.88;2.33;;;;;;;6.70;92.97;99936.25;4950982;28;20043;-79
2021/12/03 08:46:56;;;;;;;12.35;2.58;;;;;;;6.70;93.24;99925.25;4944116;28;20065;-79
2021/12/03 08:49:38;;;;;;;15.50;2.67;;;;;;;6.72;93.09;99928.44;4949716;28;20130;-79
2021/12/03 08:52:30;;;;;;;14.65;3.10;;;;;;;6.74;92.94;99937.19;4956995;28;20695;-80
2021/12/03 08:54:58;;;;;;;9.75;2.60;;;;;;;6.76;93.06;99947.84;4949250;28;20046;-79
2021/12/03 08:57:27;;;;;;;15.98;3.88;;;;;;;6.75;92.95;99944.28;4949392;28;20067;-80
2021/12/03 08:59:56;;;;;;;14.00;4.75;;;;;;;6.74;92.86;99937.19;4949871;28;20043;-80
2021/12/03 09:02:23;;;;;;;18.38;2.88;;;;;;;6.77;92.96;99934.91;4950197;28;20411;-79
2021/12/03 09:04:51;;;;;;;13.02;3.72;;;;;;;6.79;93.03;99943.59;4959626;28;20451;-79
2021/12/03 09:07:18;;;;;;;11.80;3.83;;;;;;;6.79;92.88;99943.59;4957379;28;20055;-79
2021/12/03 09:09:45;;;;;;;13.30;3.72;;;;;;;6.79;92.81;99936.16;4945203;28;20039;-79
2021/12/03 09:12:12;;;;;;;15.95;3.88;;;;;;;6.79;92.92;99936.16;4949432;28;20051;-79
2021/12/03 09:14:45;;;;;;;14.93;4.93;;;;;;;6.79;92.51;99943.59;4955563;28;20145;-79
2021/12/03 09:20:18;;;;;;;16.60;3.65;;;;;;;6.82;92.61;99949.25;4950700;28;20138;-79
2021/12/03 09:22:53;;;;;;;12.48;2.95;;;;;;;6.84;92.63;99946.16;4947697;28;20043;-79
2021/12/03 09:25:29;;;;;;;10.75;3.42;;;;;;;6.82;92.36;99937.44;4947847;28;20047;-79
2021/12/03 09:27:56;;;;;;;16.52;3.58;;;;;;;6.83;92.38;99936.31;4949903;28;20046;-79
2021/12/03 09:30:24;;;;;;;18.13;5.85;;;;;;;6.83;92.61;99928.03;4948432;28;20095;-79
2021/12/03 09:32:56;;;;;;;19.90;3.33;;;;;;;6.84;92.37;99921.38;4932060;28;20486;-79
2021/12/03 09:35:24;;;;;;;;;;;;;;;6.80;92.03;99917.72;4948512;28;20043;-79
2021/12/03 09:37:51;;;;;;;14.95;3.83;;;;;;;6.83;92.27;99925.28;4949827;28;20470;-79
2021/12/03 09:40:23;;;;;;;17.17;3.95;;;;;;;6.84;92.17;99932.38;4933658;28;20054;-79
2021/12/03 09:42:50;;;;;;;11.02;4.20;;;;;;;6.85;92.17;99925.75;4950367;28;20066;-79
2021/12/03 09:45:17;;;;;;;14.52;3.60;;;;;;;6.86;92.11;99941.13;4951052;28;20043;-79
2021/12/03 09:47:44;;;;;;;14.35;3.13;;;;;;;6.86;91.96;99927.38;4947485;28;20039;-80
2021/12/03 09:50:14;;;;;;;11.60;3.63;;;;;;;6.86;92.14;99921.88;4951473;28;20203;-79
2021/12/03 09:55:35;;;;;;;14.13;3.70;;;;;;;6.90;91.91;99920.03;4939350;28;20428;-79
2021/12/03 10:00:34;;;;;;;15.80;2.92;;;;;;;6.91;91.83;99907.91;4955317;28;20133;-82
2021/12/03 10:03:29;;;;;;;12.23;2.80;;;;;;;6.92;91.66;99904.78;4944465;28;20043;-84
2021/12/03 10:12:25;;;;;;;15.80;2.55;;;;;;;6.93;91.69;99902.84;4956623;28;20068;-82
2021/12/03 10:15:02;;;;;;;19.60;3.30;;;;;;;6.95;91.82;99909.63;4969309;28;20118;-83
2021/12/03 10:50:27;;;;;;;15.98;3.38;;;;;;;7.19;91.33;99898.63;4951317;28;20071;-82
2021/12/03 10:52:56;;;;;;;23.30;4.97;;;;;;;7.22;91.46;99891.63;4953859;28;20110;-82
2021/12/03 11:19:51;;;;;;;19.52;4.25;;;;;;;7.49;90.65;99849.66;4951387;28;20407;-82
2021/12/03 14:03:33;;;;;;;34.03;8.50;;;;;;;7.54;88.18;99571.25;4966326;28;20049;-79
2021/12/03 14:42:07;;;;;;;25.30;6.45;;;;;;;7.55;87.33;99519.69;4954561;28;20491;-78
2021/12/03 14:45:12;;;;;;;16.33;5.10;;;;;;;7.54;87.23;99516.16;4949681;28;20465;-79
2021/12/03 14:48:08;;;;;;;16.00;4.63;;;;;;;7.56;87.39;99500.06;4958737;28;20047;-79
2021/12/03 14:53:19;;;;;;;26.98;6.78;;;;;;;7.57;87.20;99476.88;4968922;28;20046;-79
2021/12/03 14:55:49;;;;;;;25.17;6.13;;;;;;;7.58;87.16;99486.75;4946668;28;20097;-78
2021/12/03 14:58:27;;;;;;;32.60;5.85;;;;;;;7.57;87.12;99473.34;4937047;28;20054;-79
2021/12/03 15:03:42;;;;;;;24.58;5.47;;;;;;;7.55;86.97;99467.34;4951209;28;20047;-79
2021/12/03 15:11:44;;;;;;;22.92;5.53;;;;;;;7.51;87.10;99447.22;4950305;28;20051;-79
2021/12/03 15:14:52;;;;;;;25.42;7.63;;;;;;;7.48;87.06;99459.75;4950085;28;20047;-79
2021/12/03 15:23:00;;;;;;;30.80;7.60;;;;;;;7.39;87.45;99450.84;4952257;28;19981;-78
2021/12/03 15:25:48;;;;;;;28.90;9.35;;;;;;;7.39;87.33;99448.09;4932230;28;20043;-77
2021/12/03 15:34:17;;;;;;;25.70;7.60;;;;;;;7.33;86.96;99442.03;4952572;28;20050;-79
2021/12/03 16:06:46;;;;;;;23.52;7.05;;;;;;;7.18;87.27;99422.78;4964236;28;20805;-83
2021/12/03 16:09:22;;;;;;;23.98;7.93;;;;;;;7.18;87.46;99431.03;4950793;28;20129;-84
2021/12/03 16:11:58;;;;;;;29.52;7.35;;;;;;;7.18;87.61;99428.28;4949887;28;20094;-84
2021/12/03 16:14:47;;;;;;;27.63;7.25;;;;;;;7.17;87.52;99426.69;4933764;28;20057;-84
2021/12/03 16:53:32;;;;;;;43.92;16.88;;;;;;;7.32;87.25;99412.94;4917468;28;20055;-84
2021/12/03 16:56:21;;;;;;;50.45;19.30;;;;;;;7.31;87.10;99416.03;4932872;28;20142;-83
2021/12/03 16:58:48;;;;;;;50.97;21.73;;;;;;;7.33;87.01;99413.75;4933813;28;20043;-83
2021/12/03 17:01:31;;;;;;;38.47;16.48;;;;;;;7.32;87.14;99401.13;4932240;28;20109;-83
2021/12/03 17:04:46;;;;;;;37.17;18.30;;;;;;;7.31;87.07;99396.75;4934125;28;20698;-84
2021/12/03 17:10:05;;;;;;;48.05;19.17;;;;;;;7.31;87.11;99385.75;4949979;28;20046;-84
2021/12/03 17:26:54;;;;;;;23.80;7.88;;;;;;;7.30;86.74;99364.91;4963059;28;20070;-85
2021/12/03 17:48:33;;;;;;;14.32;5.25;;;;;;;7.29;85.82;99352.28;4947080;28;20047;-84
2021/12/03 17:58:29;;;;;;;20.38;5.80;;;;;;;7.28;85.49;99334.19;4945791;28;20051;-84
2021/12/03 18:01:18;;;;;;;20.48;5.97;;;;;;;7.29;85.63;99336.56;4929758;28;20530;-85
2021/12/03 18:04:02;;;;;;;24.95;8.57;;;;;;;7.29;85.44;99330.25;4947345;28;20587;-85
2021/12/03 18:15:14;;;;;;;26.58;9.15;;;;;;;7.27;85.33;99343.59;4951079;28;20051;-83
2021/12/03 18:45:27;;;;;;;17.70;5.90;;;;;;;7.21;84.71;99342.25;4952253;28;20043;-80
2021/12/03 18:55:39;;;;;;;15.68;5.43;;;;;;;7.19;84.45;99345.38;4965267;28;20059;-80
2021/12/03 18:58:08;;;;;;;25.70;6.60;;;;;;;7.19;84.69;99344.56;4951804;28;20054;-79
2021/12/03 19:00:39;;;;;;;11.73;4.68;;;;;;;7.18;84.72;99335.50;4966748;28;20051;-79
2021/12/03 19:03:22;;;;;;;21.75;6.22;;;;;;;7.19;84.73;99341.81;4951938;28;20522;-79
2021/12/03 19:08:20;;;;;;;18.17;5.53;;;;;;;7.19;84.58;99328.84;4948009;28;20251;-79
2021/12/03 19:10:52;;;;;;;21.33;8.33;;;;;;;7.19;84.83;99320.59;4948413;28;20042;-79
2021/12/03 19:13:25;;;;;;;22.45;6.78;;;;;;;7.19;85.00;99325.31;4950681;28;20078;-79
2021/12/03 19:15:52;;;;;;;17.20;7.15;;;;;;;7.18;84.69;99323.69;4948790;28;20055;-79
2021/12/03 19:18:22;;;;;;;22.88;7.93;;;;;;;7.18;85.06;99323.69;4948394;28;20043;-79